Time;durP1;ratioP1;P1;durP2;ratioP2;P2;SDS_P1;SDS_P2;PMS_P1;PMS_P2;Temp;Humidity;BMP_temperature;BMP_pressure;BME280_temperature;BME280_humidity;BME280_pressure;Samples;Min_cycle;Max_cycle;Signal;HPM_P1;HPM_P2
2022/05/28 00:01:51;;;;;;;22.27;10.73;;;;;;;10.18;70.12;102080.00;5071580;28;20020;-50
2022/05/28 00:04:17;;;;;;;21.73;10.50;;;;;;;10.15;70.49;102081.38;5071894;28;20445;-53
2022/05/28 00:06:42;;;;;;;22.95;10.43;;;;;;;10.12;70.26;102071.66;5071816;28;20060;-50
2022/05/28 00:09:07;;;;;;;21.48;10.95;;;;;;;10.14;70.21;102080.53;5071624;28;20037;-50
2022/05/28 00:11:41;;;;;;;19.95;10.80;;;;;;;10.10;70.74;102073.91;5071293;28;20024;-52
2022/05/28 00:14:07;;;;;;;21.23;10.95;;;;;;;10.06;70.56;102071.94;5071657;28;20075;-51
2022/05/28 00:16:32;;;;;;;21.85;11.27;;;;;;;10.08;71.13;102067.81;5072649;28;20214;-52
2022/05/28 00:18:58;;;;;;;22.27;10.63;;;;;;;10.03;70.79;102056.72;5075153;28;20467;-52
2022/05/28 00:21:24;;;;;;;20.55;10.75;;;;;;;10.08;70.80;102062.28;5074988;28;20033;-50
2022/05/28 00:23:50;;;;;;;22.73;10.70;;;;;;;10.12;71.17;102068.91;5075086;28;20501;-48
2022/05/28 00:26:16;;;;;;;23.23;10.60;;;;;;;10.14;71.09;102063.13;5074633;28;20053;-51
2022/05/28 00:28:41;;;;;;;22.73;10.82;;;;;;;10.14;71.26;102057.59;5075468;28;20100;-48
2022/05/28 00:31:07;;;;;;;22.13;11.10;;;;;;;10.17;71.20;102064.50;5074748;28;20029;-48
2022/05/28 00:33:33;;;;;;;22.45;11.00;;;;;;;10.13;71.22;102059.50;5074375;28;20035;-48
2022/05/28 00:35:59;;;;;;;23.33;10.38;;;;;;;10.14;71.28;102047.34;5074417;28;20036;-50
2022/05/28 00:38:26;;;;;;;22.33;11.05;;;;;;;10.11;71.48;102044.31;5075232;28;20074;-48
2022/05/28 00:40:54;;;;;;;22.33;11.07;;;;;;;10.18;71.83;102055.91;5074599;28;20150;-51
2022/05/28 00:43:20;;;;;;;20.70;11.20;;;;;;;10.19;71.81;102052.06;5074474;28;20032;-54
2022/05/28 00:45:49;;;;;;;20.88;11.45;;;;;;;10.17;71.73;102040.44;5056451;28;20145;-56
2022/05/28 00:48:20;;;;;;;22.27;12.00;;;;;;;10.27;72.07;102050.69;5074468;28;20041;-53
2022/05/28 00:50:45;;;;;;;21.27;10.48;;;;;;;10.30;72.03;102044.59;5074560;28;20028;-53
2022/05/28 00:53:11;;;;;;;19.50;10.45;;;;;;;10.26;72.18;102033.25;5075036;28;20017;-52
2022/05/28 00:55:36;;;;;;;22.75;11.25;;;;;;;10.35;71.82;102041.00;5074945;28;20055;-53
2022/05/28 00:58:05;;;;;;;22.02;11.23;;;;;;;10.35;71.90;102041.00;5075186;28;20020;-53
2022/05/28 01:00:32;;;;;;;21.83;11.93;;;;;;;10.30;71.97;102050.13;5074161;28;20064;-51
2022/05/28 01:03:14;;;;;;;22.17;11.25;;;;;;;10.30;71.97;102050.13;5074396;28;20033;-50
2022/05/28 01:05:52;;;;;;;23.52;11.60;;;;;;;10.11;72.75;102034.06;5074983;28;20040;-52
2022/05/28 01:08:39;;;;;;;22.08;11.40;;;;;;;10.20;72.68;102048.19;5075054;28;20115;-51
2022/05/28 01:11:09;;;;;;;24.90;11.93;;;;;;;10.13;72.76;102042.09;5074724;28;20029;-52
2022/05/28 01:13:40;;;;;;;24.30;12.02;;;;;;;10.09;72.95;102033.53;5075019;28;20052;-52
2022/05/28 01:16:19;;;;;;;27.23;12.13;;;;;;;10.06;73.40;102034.06;5074635;28;20043;-51
2022/05/28 01:18:50;;;;;;;22.95;11.43;;;;;;;10.06;73.21;102030.47;5074545;28;20029;-52
2022/05/28 01:21:51;;;;;;;22.77;12.20;;;;;;;10.01;73.55;102033.22;5074077;28;20048;-51
2022/05/28 01:24:49;;;;;;;23.27;11.45;;;;;;;9.96;73.49;102037.66;5074661;28;20068;-53
2022/05/28 01:27:38;;;;;;;23.20;11.10;;;;;;;9.91;73.72;102039.56;5066932;28;20048;-52
2022/05/28 01:30:07;;;;;;;21.35;11.32;;;;;;;9.85;75.01;102038.72;5074412;28;20052;-51
2022/05/28 01:32:34;;;;;;;21.83;11.20;;;;;;;9.84;75.23;102035.09;5073927;28;20070;-50
2022/05/28 01:35:04;;;;;;;21.77;10.85;;;;;;;9.71;75.13;102032.03;5074582;28;20059;-54
2022/05/28 01:37:30;;;;;;;21.15;11.05;;;;;;;9.81;76.23;102043.13;5055689;28;20344;-51
2022/05/28 01:39:58;;;;;;;22.65;10.45;;;;;;;9.73;76.12;102036.16;5073658;28;20088;-52
2022/05/28 01:42:25;;;;;;;23.58;11.10;;;;;;;9.70;75.83;102038.66;5073784;28;20040;-51
2022/05/28 01:44:52;;;;;;;22.13;11.40;;;;;;;9.66;76.25;102036.44;5074056;28;20025;-51
2022/05/28 01:47:19;;;;;;;23.40;10.98;;;;;;;9.64;76.89;102032.28;5056558;28;20052;-49
2022/05/28 01:49:46;;;;;;;21.45;11.35;;;;;;;9.62;76.78;102028.97;5073961;28;20032;-50
2022/05/28 01:52:13;;;;;;;25.20;11.40;;;;;;;9.64;76.47;102032.28;5073896;28;20107;-50
2022/05/28 01:54:43;;;;;;;23.65;11.18;;;;;;;9.61;77.47;102027.31;5073592;28;20028;-52
2022/05/28 01:57:09;;;;;;;23.50;11.65;;;;;;;9.61;77.31;102030.88;5073512;28;20020;-49
2022/05/28 01:59:35;;;;;;;23.35;12.80;;;;;;;9.56;77.16;102041.94;5073592;28;20126;-50
2022/05/28 02:02:05;;;;;;;25.25;12.75;;;;;;;9.58;77.99;102038.88;5073471;28;20041;-50
2022/05/28 02:04:31;;;;;;;23.38;11.55;;;;;;;9.56;78.18;102039.16;5073549;28;20039;-53
2022/05/28 02:06:57;;;;;;;24.13;12.05;;;;;;;9.52;78.10;102047.16;5072992;28;20028;-50
2022/05/28 02:09:27;;;;;;;24.42;12.60;;;;;;;9.54;78.12;102046.88;5073138;28;20020;-50
2022/05/28 02:12:12;;;;;;;25.38;13.55;;;;;;;9.51;78.24;102044.66;5072804;28;20451;-51
2022/05/28 02:15:15;;;;;;;22.67;13.15;;;;;;;9.50;77.78;102034.69;5073188;28;20028;-52
2022/05/28 02:17:49;;;;;;;22.95;11.73;;;;;;;9.44;78.11;102042.16;5073407;28;20434;-50
2022/05/28 02:20:33;;;;;;;22.77;12.13;;;;;;;9.36;78.32;102040.72;5073340;28;20066;-50
2022/05/28 02:23:08;;;;;;;20.58;12.02;;;;;;;9.26;78.71;102026.06;5073172;28;20028;-52
2022/05/28 02:25:46;;;;;;;23.40;11.35;;;;;;;9.24;78.97;102020.78;5076822;22;20057;-55
2022/05/28 02:28:12;;;;;;;23.80;11.68;;;;;;;9.20;79.04;102031.53;5052711;28;20173;-53
2022/05/28 02:30:51;;;;;;;23.23;11.82;;;;;;;9.20;79.70;102020.50;5052295;28;20036;-55
2022/05/28 02:33:17;;;;;;;24.08;11.43;;;;;;;9.17;79.47;102032.06;5035094;28;20126;-55
2022/05/28 02:35:44;;;;;;;22.75;11.00;;;;;;;9.17;80.00;102028.47;5053413;28;20490;-57
2022/05/28 02:38:10;;;;;;;21.23;11.30;;;;;;;9.14;79.95;102027.09;5053016;28;20028;-55
2022/05/28 02:40:36;;;;;;;23.23;10.98;;;;;;;9.10;80.32;102020.44;5051963;28;20041;-55
2022/05/28 02:43:01;;;;;;;24.42;11.40;;;;;;;9.10;80.15;102017.66;5052807;28;20025;-55
2022/05/28 02:45:26;;;;;;;22.15;11.98;;;;;;;9.10;80.58;102022.38;5052736;28;20056;-55
2022/05/28 02:47:51;;;;;;;25.23;11.38;;;;;;;9.08;80.50;102016.28;5052778;28;20467;-56
2022/05/28 02:50:17;;;;;;;23.63;11.63;;;;;;;9.05;81.08;102004.66;5053057;28;20494;-55
2022/05/28 02:52:43;;;;;;;22.23;11.65;;;;;;;9.05;81.16;102007.44;5053070;28;20029;-54
2022/05/28 02:55:09;;;;;;;22.10;11.00;;;;;;;9.02;80.74;102005.19;5052585;28;20419;-56
2022/05/28 02:57:35;;;;;;;20.50;11.98;;;;;;;9.01;81.19;102011.84;5052612;28;20025;-57
2022/05/28 03:00:00;;;;;;;24.00;11.40;;;;;;;9.01;81.41;102011.00;5052915;28;20428;-56
2022/05/28 03:02:28;;;;;;;22.75;11.48;;;;;;;9.00;81.68;102012.09;5052606;28;20483;-54
2022/05/28 03:04:54;;;;;;;21.05;11.57;;;;;;;8.99;81.75;102011.28;5052376;28;20025;-55
2022/05/28 03:07:19;;;;;;;24.00;11.80;;;;;;;8.98;81.76;102015.13;5052508;28;20043;-56
2022/05/28 03:09:44;;;;;;;21.50;11.35;;;;;;;8.93;82.25;102014.25;5052034;28;20107;-53
2022/05/28 03:12:10;;;;;;;20.08;11.30;;;;;;;8.89;82.59;102017.53;5051492;28;20399;-54
2022/05/28 03:14:36;;;;;;;22.60;11.95;;;;;;;8.85;82.49;102015.56;5051367;28;20037;-57
2022/05/28 03:17:01;;;;;;;24.95;11.88;;;;;;;8.83;83.15;102029.66;5052045;28;20032;-54
2022/05/28 03:19:27;;;;;;;24.42;11.90;;;;;;;8.83;83.49;102023.31;5050700;28;20289;-55
2022/05/28 03:21:52;;;;;;;22.27;11.52;;;;;;;8.85;83.52;102018.34;5052333;28;20021;-55
2022/05/28 03:24:17;;;;;;;22.42;11.75;;;;;;;8.85;84.53;102024.69;5051866;28;20052;-55
2022/05/28 03:26:43;;;;;;;23.15;12.10;;;;;;;8.87;84.86;102029.94;5051839;28;20028;-55
2022/05/28 03:29:08;;;;;;;23.02;12.32;;;;;;;8.88;84.79;102032.44;5052790;28;20033;-55
2022/05/28 03:31:33;;;;;;;24.17;12.30;;;;;;;8.93;84.89;102023.34;5051030;28;20108;-55
2022/05/28 03:33:59;;;;;;;22.88;11.55;;;;;;;9.00;85.30;102031.41;5051988;28;20133;-55
2022/05/28 03:36:25;;;;;;;22.80;11.40;;;;;;;9.03;85.40;102028.94;5051760;28;20033;-54
2022/05/28 03:38:51;;;;;;;23.60;11.25;;;;;;;9.09;85.38;102031.75;5051474;28;20396;-53
2022/05/28 03:41:17;;;;;;;24.80;11.80;;;;;;;9.08;85.45;102032.84;5051953;28;20017;-55
2022/05/28 03:43:42;;;;;;;23.25;11.82;;;;;;;9.12;85.57;102031.19;5051651;28;20494;-54
2022/05/28 03:46:33;;;;;;;21.80;11.15;;;;;;;9.10;85.31;102028.72;5051406;28;20025;-55
2022/05/28 03:49:03;;;;;;;23.55;12.13;;;;;;;9.18;85.58;102035.66;5051887;28;20503;-53
2022/05/28 03:51:28;;;;;;;20.98;10.77;;;;;;;9.19;85.75;102029.88;5052978;28;20075;-52
2022/05/28 03:53:54;;;;;;;22.05;11.13;;;;;;;9.20;85.84;102033.47;5056050;28;20108;-55
2022/05/28 03:56:20;;;;;;;21.23;11.15;;;;;;;9.23;85.79;102032.91;5056505;28;20116;-56
2022/05/28 03:58:46;;;;;;;22.38;10.35;;;;;;;9.28;85.95;102032.13;5037070;28;20399;-51
2022/05/28 04:01:11;;;;;;;21.48;11.18;;;;;;;9.35;85.89;102041.84;5055162;28;20027;-53
2022/05/28 04:03:36;;;;;;;22.15;10.70;;;;;;;9.40;86.13;102038.25;5055417;28;20037;-50
2022/05/28 04:06:03;;;;;;;21.45;10.52;;;;;;;9.45;86.11;102041.03;5055056;28;20121;-51
2022/05/28 04:08:28;;;;;;;20.58;10.30;;;;;;;9.47;86.32;102041.59;5055321;28;20033;-57
2022/05/28 04:10:54;;;;;;;24.55;10.98;;;;;;;9.52;86.21;102036.13;5055602;28;20390;-57
2022/05/28 04:13:19;;;;;;;24.67;9.85;;;;;;;9.57;86.18;102035.31;5055671;28;20037;-55
2022/05/28 04:15:48;;;;;;;22.52;9.90;;;;;;;9.56;86.93;102050.22;5055296;28;20067;-55
2022/05/28 04:18:13;;;;;;;21.27;9.60;;;;;;;9.53;87.49;102036.94;5055480;28;20031;-56
2022/05/28 04:20:38;;;;;;;22.38;10.27;;;;;;;9.54;87.71;102049.66;5054773;28;20025;-56
2022/05/28 04:23:04;;;;;;;20.08;9.63;;;;;;;9.58;87.16;102039.72;5055519;28;20037;-55
2022/05/28 04:25:29;;;;;;;22.92;10.65;;;;;;;9.63;87.12;102041.69;5054083;28;20049;-54
2022/05/28 04:27:54;;;;;;;22.42;10.48;;;;;;;9.65;87.34;102053.28;5054730;28;20037;-55
2022/05/28 04:30:20;;;;;;;22.40;10.27;;;;;;;9.68;87.38;102052.75;5055305;28;20104;-54
2022/05/28 04:32:45;;;;;;;19.83;10.13;;;;;;;9.76;87.18;102049.47;5054569;28;20040;-52
2022/05/28 04:35:11;;;;;;;21.73;10.80;;;;;;;9.78;87.25;102049.16;5054522;28;20412;-54
2022/05/28 04:37:36;;;;;;;22.13;10.10;;;;;;;9.86;87.45;102047.81;5054548;28;20439;-56
2022/05/28 04:40:02;;;;;;;21.20;9.70;;;;;;;9.88;87.17;102062.22;5054599;28;20041;-55
2022/05/28 04:42:27;;;;;;;22.63;9.70;;;;;;;9.94;87.44;102052.81;5055196;28;20035;-54
2022/05/28 04:44:52;;;;;;;25.13;9.90;;;;;;;10.03;87.06;102055.91;5054889;28;20112;-53
2022/05/28 04:47:17;;;;;;;21.55;9.20;;;;;;;10.11;87.12;102056.19;5054734;28;20476;-54
2022/05/28 04:49:43;;;;;;;18.40;9.00;;;;;;;10.18;86.62;102058.69;5055173;28;20025;-54
2022/05/28 04:52:08;;;;;;;20.30;8.98;;;;;;;10.24;86.29;102059.53;5054353;28;20092;-56
2022/05/28 04:54:33;;;;;;;19.00;9.18;;;;;;;10.27;86.31;102061.75;5054535;28;20179;-56
2022/05/28 04:56:59;;;;;;;22.52;9.57;;;;;;;10.30;85.88;102059.28;5054178;28;20029;-55
2022/05/28 04:59:24;;;;;;;22.42;9.30;;;;;;;10.34;85.56;102062.31;5054402;28;20122;-56
2022/05/28 05:01:49;;;;;;;22.02;9.15;;;;;;;10.42;85.06;102067.31;5054325;28;20078;-56
2022/05/28 05:04:14;;;;;;;21.70;9.52;;;;;;;10.48;84.38;102061.81;5054614;28;20171;-55
2022/05/28 05:06:40;;;;;;;21.25;9.05;;;;;;;10.54;83.32;102066.22;5054669;28;20025;-55
2022/05/28 05:09:05;;;;;;;21.73;9.25;;;;;;;10.55;82.50;102077.03;5054809;28;20517;-56
2022/05/28 05:11:30;;;;;;;19.17;9.02;;;;;;;10.58;81.38;102068.16;5054584;28;20040;-55
2022/05/28 05:13:55;;;;;;;22.90;9.40;;;;;;;10.66;80.73;102077.03;5054710;28;20116;-55
2022/05/28 05:16:21;;;;;;;19.08;9.02;;;;;;;10.69;80.51;102082.00;5054634;28;20029;-53
2022/05/28 05:18:46;;;;;;;18.25;9.13;;;;;;;10.72;80.35;102082.28;5054413;28;20044;-56
2022/05/28 05:21:12;;;;;;;20.15;9.10;;;;;;;10.75;80.17;102080.91;5054621;28;20502;-57
2022/05/28 05:23:39;;;;;;;20.70;9.48;;;;;;;10.81;79.85;102078.97;5054300;28;20059;-56
2022/05/28 05:26:09;;;;;;;19.85;8.82;;;;;;;10.88;79.71;102085.03;5054757;28;20041;-54
2022/05/28 05:28:34;;;;;;;17.42;8.90;;;;;;;10.97;78.12;102091.69;5054307;28;20053;-56
2022/05/28 05:31:00;;;;;;;18.58;8.82;;;;;;;11.00;77.12;102077.28;5054244;28;20400;-59
2022/05/28 05:33:25;;;;;;;18.45;9.23;;;;;;;11.03;76.61;102087.81;5054406;28;20131;-59
2022/05/28 05:35:50;;;;;;;18.73;9.32;;;;;;;11.02;76.13;102082.53;5036258;28;20045;-57
2022/05/28 05:38:15;;;;;;;18.10;9.20;;;;;;;11.03;76.32;102084.19;5054343;28;20033;-57
2022/05/28 05:40:41;;;;;;;18.80;9.30;;;;;;;11.10;75.57;102081.97;5054047;28;20035;-57
2022/05/28 05:43:06;;;;;;;18.13;8.68;;;;;;;11.13;74.55;102083.38;5054489;28;20058;-54
2022/05/28 05:45:32;;;;;;;17.92;9.00;;;;;;;11.17;75.05;102078.91;5054213;28;20518;-54
2022/05/28 05:47:57;;;;;;;18.88;9.15;;;;;;;11.21;74.31;102080.03;5054027;28;20039;-55
2022/05/28 05:50:22;;;;;;;17.38;9.10;;;;;;;11.22;74.68;102085.28;5053865;28;20032;-57
2022/05/28 05:52:48;;;;;;;18.60;9.27;;;;;;;11.32;73.88;102087.22;5053930;28;20106;-56
2022/05/28 05:55:14;;;;;;;18.38;8.77;;;;;;;11.35;73.76;102091.34;5053730;28;20082;-56
2022/05/28 05:57:39;;;;;;;19.40;9.27;;;;;;;11.36;72.31;102093.84;5053960;28;20053;-55
2022/05/28 06:00:05;;;;;;;16.50;8.57;;;;;;;11.39;72.99;102095.19;5053819;28;20379;-56
2022/05/28 06:02:30;;;;;;;19.48;8.90;;;;;;;11.43;73.05;102092.72;5053898;28;20033;-55
2022/05/28 06:04:58;;;;;;;16.10;8.82;;;;;;;11.51;72.49;102092.97;5053773;28;20032;-55
2022/05/28 06:07:23;;;;;;;16.05;9.18;;;;;;;11.57;71.55;102096.56;5053297;28;20037;-55
2022/05/28 06:09:49;;;;;;;16.98;8.77;;;;;;;11.66;71.06;102091.25;5053304;28;20025;-55
2022/05/28 06:12:14;;;;;;;19.55;9.18;;;;;;;11.71;70.88;102094.00;5053603;28;20032;-55
2022/05/28 06:14:39;;;;;;;18.88;8.50;;;;;;;11.77;70.63;102094.81;5052820;28;20017;-55
2022/05/28 06:17:04;;;;;;;17.80;9.30;;;;;;;11.86;69.95;102098.66;5053356;28;20031;-57
2022/05/28 06:19:30;;;;;;;14.93;8.52;;;;;;;11.95;68.89;102099.72;5053050;28;20056;-58
2022/05/28 06:21:59;;;;;;;15.00;7.90;;;;;;;11.98;67.47;102093.66;5053161;28;20025;-58
2022/05/28 06:24:25;;;;;;;17.38;8.88;;;;;;;11.92;67.57;102113.31;5018405;28;20424;-57
2022/05/28 06:26:50;;;;;;;13.48;7.60;;;;;;;11.99;68.35;102102.78;5053120;28;20035;-55
2022/05/28 06:29:15;;;;;;;17.38;8.73;;;;;;;12.06;66.47;102106.06;5053337;28;20111;-54
2022/05/28 06:31:40;;;;;;;16.75;9.02;;;;;;;12.09;65.97;102104.69;5053023;28;20033;-57
2022/05/28 06:34:06;;;;;;;18.17;8.98;;;;;;;12.13;65.66;102108.53;5052902;28;20024;-51
2022/05/28 06:36:31;;;;;;;18.90;9.00;;;;;;;12.14;64.39;102116.56;5053218;28;20454;-57
2022/05/28 06:38:56;;;;;;;18.98;8.90;;;;;;;12.09;65.15;102119.38;5052863;28;20164;-59
2022/05/28 06:41:22;;;;;;;16.48;8.77;;;;;;;12.18;64.92;102108.53;5052624;28;20097;-53
2022/05/28 06:43:47;;;;;;;15.25;8.90;;;;;;;12.33;65.53;102116.75;5052527;28;20057;-52
2022/05/28 06:46:12;;;;;;;20.58;9.23;;;;;;;12.41;65.05;102112.53;5052803;28;20017;-54
2022/05/28 06:48:38;;;;;;;17.33;9.05;;;;;;;12.40;66.10;102113.66;5052714;28;20021;-54
2022/05/28 06:51:05;;;;;;;15.15;9.10;;;;;;;12.60;65.58;102115.44;5052761;28;20033;-55
2022/05/28 06:53:37;;;;;;;19.30;8.80;;;;;;;12.76;64.45;102112.53;5034974;28;20494;-56
2022/05/28 06:56:04;;;;;;;16.75;8.98;;;;;;;12.89;63.22;102117.44;5052672;28;20021;-55
2022/05/28 06:58:29;;;;;;;17.88;9.20;;;;;;;12.99;60.05;102124.03;5052479;28;20025;-51
2022/05/28 07:00:56;;;;;;;15.65;8.80;;;;;;;12.91;60.47;102123.53;5051999;28;20045;-54
2022/05/28 07:03:25;;;;;;;17.95;9.02;;;;;;;12.93;60.32;102120.47;5052481;28;20456;-53
2022/05/28 07:05:51;;;;;;;14.57;8.82;;;;;;;13.04;59.33;102118.41;5052400;28;20025;-53
2022/05/28 07:08:17;;;;;;;16.60;8.80;;;;;;;13.15;59.46;102113.63;5051892;28;20025;-54
2022/05/28 07:10:48;;;;;;;17.83;9.05;;;;;;;13.14;59.70;102121.09;5052293;28;20554;-54
2022/05/28 07:13:14;;;;;;;15.32;8.45;;;;;;;13.09;60.33;102121.16;5052299;28;20090;-54
2022/05/28 07:15:40;;;;;;;16.30;8.50;;;;;;;13.09;60.93;102121.16;5051900;28;20074;-53
2022/05/28 07:18:06;;;;;;;18.15;8.65;;;;;;;13.06;59.87;102122.59;5052140;28;20029;-54
2022/05/28 07:20:31;;;;;;;18.02;8.75;;;;;;;12.92;59.22;102130.75;5051705;28;20364;-54
2022/05/28 07:22:57;;;;;;;21.27;8.57;;;;;;;12.78;57.98;102125.03;5052232;28;20035;-52
2022/05/28 07:25:24;;;;;;;15.48;8.35;;;;;;;12.74;58.94;102125.91;5051614;28;20071;-53
2022/05/28 07:27:49;;;;;;;16.77;8.25;;;;;;;12.62;59.65;102124.31;5052257;28;20033;-53
2022/05/28 07:30:14;;;;;;;16.42;8.40;;;;;;;12.58;59.18;102131.56;5051269;28;20170;-54
2022/05/28 07:32:40;;;;;;;15.18;9.27;;;;;;;12.53;59.53;102125.22;5051203;28;20075;-53
2022/05/28 07:35:06;;;;;;;16.98;8.70;;;;;;;12.60;59.90;102134.88;5051886;28;20392;-53
2022/05/28 07:37:32;;;;;;;15.25;8.70;;;;;;;12.66;58.53;102124.56;5051316;28;20396;-53
2022/05/28 07:39:57;;;;;;;15.43;8.18;;;;;;;12.70;57.14;102128.44;5051453;28;20028;-51
2022/05/28 07:42:23;;;;;;;15.70;8.38;;;;;;;12.82;56.97;102127.22;5052010;28;20056;-53
2022/05/28 07:44:48;;;;;;;14.45;8.20;;;;;;;13.01;55.67;102138.47;5051847;28;20025;-53
2022/05/28 07:47:14;;;;;;;16.52;8.43;;;;;;;13.04;53.92;102133.16;5052025;28;20025;-54
2022/05/28 07:49:39;;;;;;;12.75;8.40;;;;;;;13.18;52.61;102135.22;5052163;28;20151;-50
2022/05/28 07:52:05;;;;;;;14.07;8.40;;;;;;;13.17;54.34;102119.72;5051881;28;20024;-55
2022/05/28 07:54:30;;;;;;;17.85;8.50;;;;;;;13.35;54.72;102130.09;5050955;28;20044;-53
2022/05/28 07:56:56;;;;;;;15.98;8.25;;;;;;;13.56;54.27;102118.75;5048774;28;20032;-55
2022/05/28 07:59:21;;;;;;;15.00;8.60;;;;;;;13.78;53.12;102125.75;5051374;28;20029;-53
2022/05/28 08:01:47;;;;;;;14.20;8.50;;;;;;;13.73;50.77;102133.03;5051403;28;20066;-55
2022/05/28 08:04:13;;;;;;;16.33;8.27;;;;;;;13.65;50.98;102135.63;5051091;28;20084;-54
2022/05/28 08:06:40;;;;;;;15.13;8.45;;;;;;;13.47;51.15;102134.41;5051737;28;20071;-54
2022/05/28 08:09:07;;;;;;;14.75;8.00;;;;;;;13.44;52.14;102140.59;5051425;28;20159;-53
2022/05/28 08:11:32;;;;;;;16.95;8.23;;;;;;;13.54;53.65;102115.47;5051495;28;20079;-54
2022/05/28 08:13:58;;;;;;;14.68;7.82;;;;;;;13.66;51.71;102124.19;5051340;28;20487;-55
2022/05/28 08:16:23;;;;;;;14.82;8.15;;;;;;;13.57;51.42;102135.16;5051353;28;20107;-53
2022/05/28 08:18:49;;;;;;;15.80;8.40;;;;;;;13.72;51.66;102122.19;5051473;28;20112;-55
2022/05/28 08:23:58;;;;;;;14.93;8.60;;;;;;;13.98;50.35;102121.91;5051442;28;20048;-56
2022/05/28 08:26:24;;;;;;;14.55;8.20;;;;;;;14.04;50.39;102115.13;5051013;28;20407;-54
2022/05/28 08:28:51;;;;;;;16.40;8.20;;;;;;;14.04;49.40;102120.69;5035825;28;20104;-54
2022/05/28 08:31:18;;;;;;;17.05;7.60;;;;;;;14.03;50.23;102113.47;5029075;28;20040;-54
2022/05/28 08:33:43;;;;;;;17.35;8.60;;;;;;;14.09;50.08;102125.34;5038371;28;20033;-54
2022/05/28 08:36:09;;;;;;;16.23;8.30;;;;;;;14.18;48.65;102109.66;5049051;28;20495;-54
2022/05/28 08:38:37;;;;;;;15.10;8.55;;;;;;;14.40;49.44;102103.47;5052440;28;20484;-54
2022/05/28 08:41:12;;;;;;;14.15;8.40;;;;;;;14.66;49.80;102109.50;5052818;28;20124;-54
2022/05/28 08:43:44;;;;;;;20.75;8.60;;;;;;;14.86;48.47;102095.53;5052952;28;20449;-54
2022/05/28 08:46:13;;;;;;;16.02;7.95;;;;;;;14.95;49.26;102107.63;5051261;28;20056;-54
2022/05/28 08:48:49;;;;;;;15.60;8.25;;;;;;;14.92;49.82;102106.28;5052884;28;20032;-54
2022/05/28 08:51:35;;;;;;;16.30;8.38;;;;;;;14.71;49.81;102110.53;5052861;28;20033;-53
2022/05/28 08:54:07;;;;;;;18.65;8.40;;;;;;;14.46;49.85;102113.41;5052436;28;20041;-54
2022/05/28 08:56:34;;;;;;;18.48;8.43;;;;;;;14.11;45.03;102137.84;5052487;28;20033;-53
2022/05/28 08:59:05;;;;;;;13.43;7.43;;;;;;;13.90;45.75;102128.94;5051945;28;20499;-54
2022/05/28 09:01:33;;;;;;;13.30;7.70;;;;;;;13.87;46.86;102119.25;5052571;28;20060;-53
2022/05/28 09:04:05;;;;;;;16.40;7.57;;;;;;;14.13;47.77;102129.19;5052569;28;20035;-53
2022/05/28 09:06:53;;;;;;;13.38;8.18;;;;;;;14.32;47.85;102116.09;5052617;28;20033;-54
2022/05/28 09:09:36;;;;;;;16.85;8.40;;;;;;;14.50;47.70;102119.19;5052522;28;20025;-54
2022/05/28 09:12:04;;;;;;;12.50;7.90;;;;;;;14.74;44.98;102102.41;5051716;28;20035;-52
2022/05/28 09:14:33;;;;;;;14.85;8.00;;;;;;;14.88;45.98;102099.66;5051308;28;20036;-53
2022/05/28 09:17:06;;;;;;;13.07;8.10;;;;;;;15.12;45.46;102095.91;5051956;28;20546;-53
2022/05/28 09:19:36;;;;;;;14.30;8.10;;;;;;;15.14;45.06;102102.03;5051733;28;20032;-54
2022/05/28 09:22:01;;;;;;;16.35;8.05;;;;;;;14.95;44.89;102105.69;5051649;28;20040;-54
2022/05/28 09:24:32;;;;;;;12.80;7.60;;;;;;;14.95;46.17;102104.84;5051795;28;20025;-53
2022/05/28 09:27:06;;;;;;;16.00;8.10;;;;;;;14.98;44.03;102110.63;5052278;28;20037;-52
2022/05/28 09:30:02;;;;;;;14.82;7.55;;;;;;;15.17;44.19;102104.16;5052126;28;20029;-54
2022/05/28 09:33:01;;;;;;;17.75;8.70;;;;;;;15.41;44.59;102095.63;5052515;28;20029;-54
2022/05/28 09:35:36;;;;;;;19.30;8.77;;;;;;;15.53;43.54;102106.31;5051762;28;20021;-52
2022/05/28 09:38:09;;;;;;;15.30;8.70;;;;;;;15.27;43.50;102097.59;5051974;28;20166;-54
2022/05/28 09:40:50;;;;;;;13.93;8.57;;;;;;;15.19;45.32;102101.09;5051447;28;20376;-54
2022/05/28 09:43:31;;;;;;;15.93;8.93;;;;;;;15.18;45.61;102099.44;5052000;28;20036;-55
2022/05/28 09:46:26;;;;;;;15.77;8.23;;;;;;;15.03;46.01;102112.50;5050000;28;20110;-53
2022/05/28 09:49:00;;;;;;;16.95;8.55;;;;;;;14.56;47.66;102103.22;5050497;28;20036;-52
2022/05/28 09:51:30;;;;;;;;;;;;;;;14.80;47.71;102117.06;5052313;28;20471;-53
2022/05/28 09:54:23;;;;;;;16.35;8.30;;;;;;;14.80;46.00;102095.63;5051924;28;20011;-54
2022/05/28 09:56:55;;;;;;;16.77;8.40;;;;;;;15.12;45.10;102080.00;5052021;28;20032;-55
2022/05/28 09:59:32;;;;;;;15.82;8.30;;;;;;;15.53;44.92;102085.94;5051810;28;20028;-54
2022/05/28 10:04:28;;;;;;;17.52;8.57;;;;;;;15.55;44.29;102092.84;5051467;28;20128;-53
2022/05/28 10:05:29;;;;;;;16.60;8.93;;;;;;;15.54;44.11;102084.81;4970149;28;20035;-56
2022/05/28 10:07:55;;;;;;;16.08;8.52;;;;;;;15.64;43.58;102084.59;5051739;28;20037;-56
2022/05/28 10:10:26;;;;;;;17.88;8.93;;;;;;;15.58;43.44;102089.44;5051812;28;20025;-55
2022/05/28 10:12:51;;;;;;;14.13;8.50;;;;;;;15.40;39.67;102091.19;5051827;28;20028;-56
2022/05/28 10:15:23;;;;;;;13.80;8.02;;;;;;;15.46;40.31;102075.19;5051785;28;20387;-55
2022/05/28 10:17:59;;;;;;;15.13;8.93;;;;;;;15.46;40.80;102071.59;5051515;28;20036;-53
2022/05/28 10:20:25;;;;;;;14.73;8.50;;;;;;;15.64;40.74;102076.22;5051345;28;20029;-53
2022/05/28 10:22:53;;;;;;;11.93;7.78;;;;;;;15.60;40.13;102078.81;5051259;28;20052;-54
2022/05/28 10:25:31;;;;;;;13.63;8.25;;;;;;;15.44;40.09;102074.69;5050924;28;20053;-54
2022/05/28 10:27:57;;;;;;;13.27;8.10;;;;;;;15.46;40.39;102089.13;5050731;28;20638;-55
2022/05/28 10:30:36;;;;;;;11.57;7.47;;;;;;;15.67;40.42;102074.78;5050319;28;20017;-55
2022/05/28 10:33:11;;;;;;;13.23;7.60;;;;;;;15.87;40.06;102073.56;5051148;28;20041;-54
2022/05/28 10:35:38;;;;;;;15.77;7.70;;;;;;;15.94;39.45;102081.47;5050986;28;20163;-55
2022/05/28 10:38:06;;;;;;;14.40;7.45;;;;;;;15.89;39.14;102079.63;5050860;28;20017;-55
2022/05/28 10:40:31;;;;;;;15.70;7.50;;;;;;;15.84;38.81;102071.38;5050636;28;20033;-55
2022/05/28 10:43:03;;;;;;;11.63;7.47;;;;;;;16.03;40.18;102062.84;5050739;28;20376;-54
2022/05/28 10:45:46;;;;;;;14.00;7.40;;;;;;;15.97;37.71;102064.13;5031091;28;20159;-54
2022/05/28 10:48:27;;;;;;;13.57;7.30;;;;;;;15.78;38.41;102078.16;5050762;28;20090;-53
2022/05/28 10:51:32;;;;;;;15.48;7.82;;;;;;;15.90;38.73;102076.56;5050892;28;20032;-54
2022/05/28 10:54:15;;;;;;;;;;;;;;;16.30;39.05;102073.13;5051230;28;20078;-51
2022/05/28 10:56:55;;;;;;;14.05;7.70;;;;;;;16.19;38.83;102075.34;5050576;28;19917;-54
2022/05/28 10:59:46;;;;;;;12.15;7.53;;;;;;;16.14;39.56;102072.66;5050805;28;20028;-55
2022/05/28 11:02:26;;;;;;;20.60;9.07;;;;;;;16.02;40.13;102086.31;5050653;28;20024;-53
2022/05/28 11:05:14;;;;;;;16.65;7.70;;;;;;;15.93;41.25;102068.66;5051154;28;20420;-55
2022/05/28 11:08:07;;;;;;;14.68;7.90;;;;;;;15.71;41.75;102071.03;5050185;28;20055;-52
2022/05/28 11:10:38;;;;;;;15.57;7.57;;;;;;;16.00;42.05;102057.94;5050492;28;20040;-53
2022/05/28 11:13:22;;;;;;;14.07;7.78;;;;;;;16.12;41.23;102065.75;5050498;28;20033;-54
2022/05/28 11:16:32;;;;;;;17.50;8.00;;;;;;;16.08;41.25;102064.72;5050297;28;20391;-53
2022/05/28 11:19:22;;;;;;;17.42;8.20;;;;;;;15.91;41.46;102069.00;4988704;28;20042;-52
2022/05/28 11:22:21;;;;;;;13.95;7.60;;;;;;;15.88;40.91;102061.22;5050241;28;20115;-54
2022/05/28 11:24:55;;;;;;;16.67;7.60;;;;;;;15.94;39.33;102059.16;5049950;28;20091;-53
2022/05/28 11:27:54;;;;;;;16.45;7.82;;;;;;;16.23;39.22;102053.19;5050029;28;20025;-54
2022/05/28 11:30:26;;;;;;;18.23;7.80;;;;;;;16.41;37.93;102048.56;5050184;28;20021;-54
2022/05/28 11:33:00;;;;;;;13.30;7.50;;;;;;;16.81;37.94;102045.88;5050018;28;20410;-54